Time;durP1;ratioP1;P1;durP2;ratioP2;P2;SDS_P1;SDS_P2;PMS_P1;PMS_P2;Temp;Humidity;BMP_temperature;BMP_pressure;BME280_temperature;BME280_humidity;BME280_pressure;Samples;Min_cycle;Max_cycle;Signal;HPM_P1;HPM_P2
2022/03/10 00:00:53;;;;;;;16.30;9.15;;;;;;;;;;5014996;28;20027;-83
2022/03/10 00:03:18;;;;;;;15.85;8.23;;;;;;;;;;5016283;28;20034;-83
2022/03/10 00:05:44;;;;;;;15.23;7.90;;;;;;;;;;4996794;28;20019;-82
2022/03/10 00:08:09;;;;;;;17.27;9.23;;;;;;;;;;5011780;28;20030;-83
2022/03/10 00:10:34;;;;;;;17.42;8.73;;;;;;;;;;5011367;28;20018;-83
2022/03/10 00:13:00;;;;;;;17.92;9.02;;;;;;;;;;5012279;28;20530;-83
2022/03/10 00:15:25;;;;;;;17.77;9.23;;;;;;;;;;5012396;28;20014;-83
2022/03/10 00:17:51;;;;;;;20.55;9.10;;;;;;;;;;5013156;28;20069;-83
2022/03/10 00:20:16;;;;;;;18.75;9.02;;;;;;;;;;5012376;28;20381;-82
2022/03/10 00:22:45;;;;;;;14.95;8.23;;;;;;;;;;5014405;28;20014;-82
2022/03/10 00:25:10;;;;;;;;;;;;;;;;;;4996845;28;20022;-82
2022/03/10 00:27:36;;;;;;;16.70;7.80;;;;;;;;;;5010383;28;19913;-81
2022/03/10 00:30:01;;;;;;;18.00;8.02;;;;;;;;;;5009906;28;20252;-81
2022/03/10 00:32:26;;;;;;;16.88;7.72;;;;;;;;;;5006182;28;20076;-81
2022/03/10 00:34:52;;;;;;;14.02;8.07;;;;;;;;;;4999804;28;20018;-80
2022/03/10 00:37:17;;;;;;;17.75;8.27;;;;;;;;;;4999084;28;20023;-80
2022/03/10 00:39:42;;;;;;;17.80;7.90;;;;;;;;;;5005076;28;20014;-80
2022/03/10 00:42:08;;;;;;;18.38;7.97;;;;;;;;;;5005755;28;20113;-80
2022/03/10 00:44:34;;;;;;;15.88;7.68;;;;;;;;;;4998866;28;20125;-79
2022/03/10 00:46:59;;;;;;;16.30;8.05;;;;;;;;;;5008776;28;20025;-82
2022/03/10 00:49:24;;;;;;;15.40;7.57;;;;;;;;;;5014629;28;20018;-83
2022/03/10 00:51:50;;;;;;;15.73;7.95;;;;;;;;;;5015846;28;20002;-82
2022/03/10 00:54:16;;;;;;;20.33;9.50;;;;;;;;;;5023628;28;20018;-83
2022/03/10 00:56:41;;;;;;;18.00;8.20;;;;;;;;;;5017842;28;20024;-82
2022/03/10 00:59:06;;;;;;;14.73;7.97;;;;;;;;;;5014064;28;20026;-83
2022/03/10 01:01:32;;;;;;;19.05;8.65;;;;;;;;;;5007664;28;20022;-81
2022/03/10 01:03:57;;;;;;;17.73;7.85;;;;;;;;;;4996330;28;20030;-81
2022/03/10 01:06:22;;;;;;;18.15;8.02;;;;;;;;;;4994409;28;20027;-81
2022/03/10 01:08:47;;;;;;;13.52;7.20;;;;;;;;;;5001206;28;20086;-82
2022/03/10 01:11:12;;;;;;;15.55;7.65;;;;;;;;;;5010785;28;20026;-82
2022/03/10 01:13:38;;;;;;;17.13;8.02;;;;;;;;;;5012266;28;20062;-83
2022/03/10 01:16:03;;;;;;;15.43;7.90;;;;;;;;;;5020828;28;20018;-85
2022/03/10 01:18:28;;;;;;;16.13;8.05;;;;;;;;;;5002942;28;20019;-83
2022/03/10 01:20:54;;;;;;;17.60;8.68;;;;;;;;;;5018218;28;20069;-83
2022/03/10 01:23:19;;;;;;;15.82;7.93;;;;;;;;;;5018852;28;20026;-82
2022/03/10 01:25:44;;;;;;;16.55;7.93;;;;;;;;;;5018381;28;20006;-80
2022/03/10 01:28:10;;;;;;;18.17;8.43;;;;;;;;;;4984945;28;20029;-79
2022/03/10 01:30:35;;;;;;;17.42;7.90;;;;;;;;;;4984905;28;20069;-80
2022/03/10 01:33:00;;;;;;;17.90;8.73;;;;;;;;;;5001507;28;20046;-79
2022/03/10 01:35:26;;;;;;;18.02;8.80;;;;;;;;;;5000586;28;20466;-79
2022/03/10 01:37:51;;;;;;;20.23;9.35;;;;;;;;;;5000498;28;20026;-80
2022/03/10 01:40:17;;;;;;;17.45;8.65;;;;;;;;;;4999448;28;20037;-80
2022/03/10 01:42:42;;;;;;;17.92;8.35;;;;;;;;;;4971467;28;20022;-80
2022/03/10 01:45:09;;;;;;;14.00;7.45;;;;;;;;;;4981569;28;20114;-80
2022/03/10 01:47:34;;;;;;;17.63;8.15;;;;;;;;;;4985872;28;20034;-81
2022/03/10 01:50:00;;;;;;;17.45;8.18;;;;;;;;;;4983432;28;20398;-80
2022/03/10 01:52:25;;;;;;;15.27;7.78;;;;;;;;;;4982708;28;20023;-82
2022/03/10 01:54:50;;;;;;;16.70;8.85;;;;;;;;;;4982257;28;20039;-81
2022/03/10 01:57:16;;;;;;;17.60;8.82;;;;;;;;;;4989841;28;20015;-82
2022/03/10 01:59:41;;;;;;;17.08;7.80;;;;;;;;;;5004811;28;20023;-81
2022/03/10 02:02:07;;;;;;;14.10;7.82;;;;;;;;;;5003579;28;20029;-81
2022/03/10 02:04:33;;;;;;;19.92;7.47;;;;;;;;;;5002735;28;20025;-81
2022/03/10 02:07:00;;;;;;;19.02;8.30;;;;;;;;;;4997019;28;20030;-80
2022/03/10 02:12:09;;;;;;;15.63;7.93;;;;;;;;;;4995851;28;20464;-79
2022/03/10 02:17:21;;;;;;;15.73;7.90;;;;;;;;;;4981215;28;20170;-80
2022/03/10 02:19:49;;;;;;;13.95;5.88;;;;;;;;;;4979513;28;20019;-81
2022/03/10 02:22:14;;;;;;;15.95;8.20;;;;;;;;;;4980034;28;20067;-81
2022/03/10 02:24:40;;;;;;;16.75;7.60;;;;;;;;;;4979534;28;20565;-80
2022/03/10 02:27:16;;;;;;;16.10;7.97;;;;;;;;;;4982226;28;20045;-80
2022/03/10 02:29:43;;;;;;;15.45;7.63;;;;;;;;;;4996669;28;20019;-80
2022/03/10 02:32:08;;;;;;;15.57;8.20;;;;;;;;;;4978566;28;20115;-80
2022/03/10 02:34:34;;;;;;;14.77;7.25;;;;;;;;;;4980229;28;20055;-80
2022/03/10 02:36:59;;;;;;;20.83;8.10;;;;;;;;;;4979467;28;20023;-80
2022/03/10 02:39:24;;;;;;;14.65;7.25;;;;;;;;;;4980285;28;20486;-79
2022/03/10 02:41:49;;;;;;;17.30;7.83;;;;;;;;;;4979406;28;20030;-80
2022/03/10 02:44:14;;;;;;;15.23;7.37;;;;;;;;;;4973835;28;20510;-81
2022/03/10 02:46:40;;;;;;;14.98;7.70;;;;;;;;;;4999332;28;20026;-78
2022/03/10 02:49:05;;;;;;;18.38;8.90;;;;;;;;;;4999718;28;20033;-78
2022/03/10 02:51:30;;;;;;;16.40;8.07;;;;;;;;;;4997562;28;20023;-79
2022/03/10 02:53:55;;;;;;;17.17;8.13;;;;;;;;;;4998354;28;20015;-78
2022/03/10 02:56:20;;;;;;;15.97;8.20;;;;;;;;;;4998468;28;20076;-79
2022/03/10 02:58:45;;;;;;;15.77;7.50;;;;;;;;;;4998308;28;20025;-78
2022/03/10 03:01:11;;;;;;;20.10;8.07;;;;;;;;;;4980081;28;20501;-80
2022/03/10 03:03:36;;;;;;;17.25;7.10;;;;;;;;;;4991305;28;20027;-80
2022/03/10 03:06:01;;;;;;;16.48;7.95;;;;;;;;;;5000846;28;20169;-80
2022/03/10 03:08:27;;;;;;;16.27;8.23;;;;;;;;;;5002633;28;20038;-82
2022/03/10 03:10:52;;;;;;;14.23;7.27;;;;;;;;;;4987900;28;20022;-81
2022/03/10 03:13:17;;;;;;;13.83;7.20;;;;;;;;;;5003996;28;20102;-80
2022/03/10 03:15:42;;;;;;;17.25;7.72;;;;;;;;;;5004288;28;20029;-81
2022/03/10 03:18:07;;;;;;;16.30;7.97;;;;;;;;;;5005571;28;20030;-81
2022/03/10 03:20:33;;;;;;;19.02;7.72;;;;;;;;;;4990993;28;20022;-81
2022/03/10 03:22:58;;;;;;;15.50;7.75;;;;;;;;;;4979485;28;20027;-80
2022/03/10 03:25:23;;;;;;;15.25;8.02;;;;;;;;;;4958667;28;20022;-78
2022/03/10 03:27:48;;;;;;;19.73;7.90;;;;;;;;;;4976612;28;20030;-82
2022/03/10 03:30:14;;;;;;;15.40;7.67;;;;;;;;;;4960399;28;20483;-80
2022/03/10 03:32:39;;;;;;;15.57;7.75;;;;;;;;;;4960641;28;20030;-80
2022/03/10 03:35:04;;;;;;;14.52;7.47;;;;;;;;;;4974343;28;20023;-80
2022/03/10 03:37:29;;;;;;;15.73;7.78;;;;;;;;;;4976693;28;20027;-80
2022/03/10 03:39:54;;;;;;;16.33;7.90;;;;;;;;;;4976122;28;20023;-80
2022/03/10 03:42:20;;;;;;;19.63;8.97;;;;;;;;;;4976278;28;20026;-79
2022/03/10 03:44:45;;;;;;;19.67;7.65;;;;;;;;;;4976103;28;20514;-78
2022/03/10 03:47:10;;;;;;;14.77;7.83;;;;;;;;;;4975579;28;20471;-78
2022/03/10 03:49:36;;;;;;;19.63;7.70;;;;;;;;;;4977404;28;20022;-77
2022/03/10 03:52:01;;;;;;;19.25;7.78;;;;;;;;;;4988932;28;20038;-79
2022/03/10 03:54:26;;;;;;;20.98;7.80;;;;;;;;;;4975451;28;20025;-79
2022/03/10 03:56:51;;;;;;;17.40;7.40;;;;;;;;;;4975569;28;20046;-79
2022/03/10 03:59:17;;;;;;;18.80;8.02;;;;;;;;;;4975542;28;20019;-80
2022/03/10 04:01:42;;;;;;;19.07;8.80;;;;;;;;;;4975436;28;20359;-78
2022/03/10 04:04:07;;;;;;;18.20;8.20;;;;;;;;;;4975021;28;20062;-79
2022/03/10 04:06:33;;;;;;;17.52;8.52;;;;;;;;;;4993970;28;20022;-79
2022/03/10 04:08:58;;;;;;;16.70;7.73;;;;;;;;;;4994557;28;20026;-79
2022/03/10 04:11:23;;;;;;;16.17;8.00;;;;;;;;;;4994328;28;20049;-79
2022/03/10 04:13:48;;;;;;;19.17;8.50;;;;;;;;;;4994311;28;20022;-78
2022/03/10 04:16:13;;;;;;;18.17;8.27;;;;;;;;;;4993956;28;20042;-80
2022/03/10 04:18:39;;;;;;;17.47;8.43;;;;;;;;;;4994834;28;20014;-80
2022/03/10 04:21:04;;;;;;;17.93;8.30;;;;;;;;;;4994295;28;20022;-79
2022/03/10 04:23:29;;;;;;;15.77;8.23;;;;;;;;;;4984510;28;20027;-79
2022/03/10 04:25:55;;;;;;;17.23;8.40;;;;;;;;;;4975357;28;20406;-80
2022/03/10 04:28:22;;;;;;;26.27;10.70;;;;;;;;;;4975502;28;20105;-78
2022/03/10 04:30:47;;;;;;;21.63;8.53;;;;;;;;;;4975439;28;20023;-78
2022/03/10 04:33:12;;;;;;;21.37;8.30;;;;;;;;;;4974613;28;20038;-79
2022/03/10 04:35:37;;;;;;;21.70;9.10;;;;;;;;;;4974794;28;20085;-79
2022/03/10 04:38:03;;;;;;;16.40;7.97;;;;;;;;;;4961668;28;20026;-79
2022/03/10 04:40:28;;;;;;;19.73;8.73;;;;;;;;;;4993611;28;20077;-81
2022/03/10 04:42:53;;;;;;;16.93;7.57;;;;;;;;;;4958871;28;20089;-80
2022/03/10 04:45:19;;;;;;;18.03;7.87;;;;;;;;;;4976268;28;20026;-81
2022/03/10 04:47:44;;;;;;;20.07;7.67;;;;;;;;;;4977267;28;20022;-81
2022/03/10 04:50:11;;;;;;;19.50;7.73;;;;;;;;;;4982185;28;20089;-81
2022/03/10 04:52:36;;;;;;;14.77;7.60;;;;;;;;;;4981217;28;20031;-81
2022/03/10 04:55:02;;;;;;;18.37;8.30;;;;;;;;;;4996249;28;20022;-80
2022/03/10 04:57:27;;;;;;;16.40;7.07;;;;;;;;;;4993787;28;20022;-80
2022/03/10 04:59:52;;;;;;;14.67;7.63;;;;;;;;;;4994853;28;20041;-80
2022/03/10 05:02:35;;;;;;;17.87;8.17;;;;;;;;;;4995005;28;20068;-79
2022/03/10 05:05:01;;;;;;;17.67;8.20;;;;;;;;;;4994845;28;20018;-81
2022/03/10 05:07:26;;;;;;;16.80;7.37;;;;;;;;;;4995963;28;20092;-79
2022/03/10 05:09:51;;;;;;;20.00;9.07;;;;;;;;;;4994731;28;20386;-80
2022/03/10 05:12:17;;;;;;;18.62;8.54;;;;;;;;;;4986494;28;20462;-79
2022/03/10 05:14:42;;;;;;;21.47;7.90;;;;;;;;;;4974991;28;20061;-80
2022/03/10 05:17:07;;;;;;;18.10;8.67;;;;;;;;;;4975745;28;20058;-79
2022/03/10 05:19:36;;;;;;;19.70;8.37;;;;;;;;;;4975387;28;20463;-80
2022/03/10 05:22:01;;;;;;;15.35;7.70;;;;;;;;;;4958659;28;20121;-79
2022/03/10 05:24:26;;;;;;;15.87;7.90;;;;;;;;;;4975659;28;20057;-81
2022/03/10 05:26:51;;;;;;;18.83;8.07;;;;;;;;;;4964314;28;20440;-80
2022/03/10 05:29:16;;;;;;;19.83;7.77;;;;;;;;;;4988435;28;20018;-80
2022/03/10 05:31:42;;;;;;;18.30;7.97;;;;;;;;;;4959094;28;20031;-80
2022/03/10 05:34:07;;;;;;;22.57;8.13;;;;;;;;;;4976648;28;20439;-80
2022/03/10 05:36:34;;;;;;;21.03;8.83;;;;;;;;;;4974684;28;20027;-80
2022/03/10 05:38:59;;;;;;;26.87;9.30;;;;;;;;;;4977836;28;20529;-82
2022/03/10 05:41:24;;;;;;;14.70;7.63;;;;;;;;;;4977772;28;20105;-82
2022/03/10 05:43:50;;;;;;;18.37;8.30;;;;;;;;;;4977289;28;20011;-79
2022/03/10 05:46:15;;;;;;;16.97;8.20;;;;;;;;;;4992931;28;20101;-80
2022/03/10 05:48:40;;;;;;;18.70;8.57;;;;;;;;;;4975996;28;20019;-79
2022/03/10 05:51:05;;;;;;;18.10;8.33;;;;;;;;;;4976816;28;20023;-82
2022/03/10 05:53:30;;;;;;;17.23;7.93;;;;;;;;;;4979750;28;20023;-81
2022/03/10 05:55:56;;;;;;;21.80;8.63;;;;;;;;;;4963030;28;20026;-82
2022/03/10 05:58:21;;;;;;;18.77;7.53;;;;;;;;;;4964683;28;20026;-80
2022/03/10 06:00:46;;;;;;;23.67;8.43;;;;;;;;;;4985228;28;20046;-81
2022/03/10 06:03:12;;;;;;;18.90;8.60;;;;;;;;;;4999266;28;20042;-81
2022/03/10 06:05:37;;;;;;;17.43;7.80;;;;;;;;;;5002005;28;20033;-80
2022/03/10 06:08:02;;;;;;;16.00;7.10;;;;;;;;;;4999571;28;20033;-81
2022/03/10 06:10:28;;;;;;;18.97;7.67;;;;;;;;;;4998813;28;20022;-79
2022/03/10 06:12:53;;;;;;;18.07;8.17;;;;;;;;;;4979900;28;20080;-80
2022/03/10 06:15:18;;;;;;;15.00;7.60;;;;;;;;;;4980228;28;20402;-81
2022/03/10 06:17:47;;;;;;;16.80;8.30;;;;;;;;;;4998053;28;20092;-80
2022/03/10 06:20:12;;;;;;;18.58;7.95;;;;;;;;;;4989914;28;20057;-80
2022/03/10 06:22:37;;;;;;;17.97;7.70;;;;;;;;;;4999793;28;20030;-80
2022/03/10 06:25:03;;;;;;;20.37;8.43;;;;;;;;;;5000066;28;20118;-81
2022/03/10 06:27:29;;;;;;;17.17;8.23;;;;;;;;;;5002855;28;20026;-82
2022/03/10 06:29:54;;;;;;;17.57;7.97;;;;;;;;;;5000722;28;20046;-80
2022/03/10 06:32:21;;;;;;;17.83;8.30;;;;;;;;;;5001553;28;20053;-83
2022/03/10 06:34:47;;;;;;;20.17;9.07;;;;;;;;;;5009379;28;20038;-83
2022/03/10 06:37:15;;;;;;;18.43;8.17;;;;;;;;;;5165212;23;20088;-84
2022/03/10 06:39:46;;;;;;;20.17;8.20;;;;;;;;;;5155654;23;20034;-84
2022/03/10 06:50:05;;;;;;;19.83;8.50;;;;;;;;;;5200525;22;20105;-82
2022/03/10 06:52:33;;;;;;;25.47;11.03;;;;;;;;;;5019027;28;20042;-85
2022/03/10 06:55:09;;;;;;;24.38;9.90;;;;;;;;;;5039961;28;20009;-84
2022/03/10 06:57:35;;;;;;;16.67;8.07;;;;;;;;;;5029212;28;20448;-86
2022/03/10 07:00:01;;;;;;;19.83;8.40;;;;;;;;;;5027279;28;20396;-82
2022/03/10 07:02:27;;;;;;;22.40;10.40;;;;;;;;;;5036930;28;20013;-82
2022/03/10 07:04:52;;;;;;;40.37;14.93;;;;;;;;;;5037270;28;20018;-81
2022/03/10 07:07:19;;;;;;;25.30;12.00;;;;;;;;;;5018313;28;20029;-84
2022/03/10 07:09:45;;;;;;;27.13;11.70;;;;;;;;;;5041126;28;20052;-84
2022/03/10 07:12:12;;;;;;;44.57;18.70;;;;;;;;;;5026032;28;20029;-83
2022/03/10 07:14:41;;;;;;;35.83;15.73;;;;;;;;;;5034095;28;20041;-83
2022/03/10 07:17:10;;;;;;;;;;;;;;;;;;5041825;28;20036;-83
2022/03/10 07:24:47;;;;;;;22.05;9.60;;;;;;;;;;5507957;22;20057;-83
2022/03/10 07:27:12;;;;;;;16.85;7.97;;;;;;;;;;5010587;28;20025;-84
2022/03/10 07:29:40;;;;;;;19.98;8.05;;;;;;;;;;4998140;28;20066;-82
2022/03/10 07:32:05;;;;;;;17.58;9.10;;;;;;;;;;4985256;28;20092;-82
2022/03/10 07:34:31;;;;;;;15.95;7.90;;;;;;;;;;4987978;28;20026;-82
2022/03/10 07:36:59;;;;;;;17.85;7.80;;;;;;;;;;5006980;28;20019;-83
2022/03/10 07:39:25;;;;;;;26.93;11.43;;;;;;;;;;4995984;28;20027;-82
2022/03/10 07:41:53;;;;;;;22.40;10.32;;;;;;;;;;5013331;28;20302;-83
2022/03/10 07:44:18;;;;;;;14.98;7.88;;;;;;;;;;5012933;28;20515;-82
2022/03/10 07:46:44;;;;;;;20.70;8.32;;;;;;;;;;4999014;28;20030;-81
2022/03/10 07:49:09;;;;;;;15.05;8.10;;;;;;;;;;4999291;28;20465;-81
2022/03/10 07:51:34;;;;;;;15.85;8.38;;;;;;;;;;5011908;28;20066;-83
2022/03/10 07:54:00;;;;;;;17.05;8.10;;;;;;;;;;4991396;28;20053;-82
2022/03/10 07:56:25;;;;;;;18.30;8.32;;;;;;;;;;4994839;28;20038;-83
2022/03/10 07:58:50;;;;;;;20.00;9.45;;;;;;;;;;5009687;28;20049;-83
2022/03/10 08:01:15;;;;;;;20.50;9.48;;;;;;;;;;4997187;28;20085;-84
2022/03/10 08:03:41;;;;;;;15.57;7.20;;;;;;;;;;5016110;28;20022;-83
2022/03/10 08:06:07;;;;;;;22.35;8.00;;;;;;;;;;5017638;28;20014;-83
2022/03/10 08:11:00;;;;;;;16.98;7.85;;;;;;;;;;4990939;28;20114;-81
2022/03/10 08:13:26;;;;;;;19.90;8.50;;;;;;;;;;4970045;28;20023;-82
2022/03/10 08:15:55;;;;;;;21.52;9.15;;;;;;;;;;4989739;28;20030;-84
2022/03/10 08:18:20;;;;;;;17.98;8.55;;;;;;;;;;4998073;28;20035;-83
2022/03/10 08:20:55;;;;;;;16.95;8.10;;;;;;;;;;5081671;23;20043;-83
2022/03/10 08:36:27;;;;;;;16.17;6.75;;;;;;;;;;5880925;23;19919;-80
2022/03/10 08:59:35;;;;;;;16.92;7.93;;;;;;;;;;5905816;23;20059;-81
2022/03/10 09:02:03;;;;;;;16.23;7.43;;;;;;;;;;5016011;28;20026;-84
2022/03/10 09:04:29;;;;;;;15.02;8.13;;;;;;;;;;5016278;28;20011;-83
2022/03/10 09:06:55;;;;;;;16.08;8.02;;;;;;;;;;5026996;28;20025;-83
2022/03/10 09:09:24;;;;;;;14.35;7.32;;;;;;;;;;5038464;28;20009;-83
2022/03/10 09:11:49;;;;;;;17.73;6.43;;;;;;;;;;5054469;28;20028;-82
2022/03/10 09:14:14;;;;;;;15.00;7.53;;;;;;;;;;5038521;28;20029;-81
2022/03/10 09:16:40;;;;;;;17.27;7.53;;;;;;;;;;5018560;28;20025;-79
2022/03/10 09:19:05;;;;;;;16.10;7.60;;;;;;;;;;5017126;28;20029;-81
2022/03/10 09:21:30;;;;;;;14.07;7.22;;;;;;;;;;5042082;28;20026;-81
2022/03/10 09:23:56;;;;;;;14.50;6.90;;;;;;;;;;5035128;28;20026;-80
2022/03/10 09:26:21;;;;;;;18.77;7.30;;;;;;;;;;5028025;28;20059;-79
2022/03/10 09:28:46;;;;;;;14.80;7.55;;;;;;;;;;5012589;28;20033;-79
2022/03/10 09:31:12;;;;;;;16.90;7.10;;;;;;;;;;4996566;28;20112;-79
2022/03/10 09:33:40;;;;;;;16.65;6.70;;;;;;;;;;5016001;28;20301;-78
2022/03/10 09:36:05;;;;;;;15.38;7.75;;;;;;;;;;5016382;28;20033;-79
2022/03/10 09:38:31;;;;;;;15.77;7.65;;;;;;;;;;5020006;28;20497;-78
2022/03/10 09:40:56;;;;;;;16.58;7.88;;;;;;;;;;5030814;28;20022;-79
2022/03/10 09:43:22;;;;;;;17.67;8.00;;;;;;;;;;5016084;28;20028;-79
2022/03/10 09:45:49;;;;;;;16.95;7.82;;;;;;;;;;5016336;28;20029;-79
2022/03/10 09:48:14;;;;;;;17.48;8.00;;;;;;;;;;5016055;28;20049;-79
2022/03/10 09:50:39;;;;;;;19.08;7.38;;;;;;;;;;5016469;28;20437;-78
2022/03/10 09:53:05;;;;;;;16.52;6.80;;;;;;;;;;5015886;28;20092;-78
2022/03/10 09:55:30;;;;;;;19.55;7.80;;;;;;;;;;5015144;28;20025;-79
2022/03/10 09:57:55;;;;;;;17.60;8.05;;;;;;;;;;5022803;28;20028;-79
2022/03/10 10:00:20;;;;;;;16.67;6.93;;;;;;;;;;5015683;28;20121;-78
2022/03/10 10:02:46;;;;;;;20.70;7.57;;;;;;;;;;5015637;28;20026;-77
2022/03/10 10:05:28;;;;;;;14.77;6.03;;;;;;;;;;5015717;28;20418;-78
2022/03/10 10:08:00;;;;;;;17.50;6.65;;;;;;;;;;4998014;28;20104;-79
2022/03/10 10:10:29;;;;;;;17.50;6.60;;;;;;;;;;5015771;28;20084;-79
2022/03/10 10:12:54;;;;;;;14.60;6.90;;;;;;;;;;5012081;28;20389;-79
2022/03/10 10:15:20;;;;;;;14.70;6.50;;;;;;;;;;5014728;28;20024;-80
2022/03/10 10:17:53;;;;;;;11.80;7.00;;;;;;;;;;5035269;28;20495;-80
2022/03/10 10:20:19;;;;;;;13.93;5.72;;;;;;;;;;5034505;28;20029;-80
2022/03/10 10:22:45;;;;;;;8.88;5.18;;;;;;;;;;5034040;28;20018;-79
2022/03/10 10:25:10;;;;;;;11.52;5.45;;;;;;;;;;5034000;28;20025;-80
2022/03/10 10:27:37;;;;;;;12.88;6.15;;;;;;;;;;5032440;28;20396;-80
2022/03/10 10:30:04;;;;;;;21.95;10.27;;;;;;;;;;5001949;28;20025;-79
2022/03/10 10:32:30;;;;;;;16.30;5.38;;;;;;;;;;5013604;28;20250;-79
2022/03/10 10:35:05;;;;;;;9.68;4.47;;;;;;;;;;5014047;28;20213;-79
2022/03/10 10:37:31;;;;;;;16.73;9.45;;;;;;;;;;4996071;28;20033;-78
2022/03/10 10:39:58;;;;;;;12.23;5.97;;;;;;;;;;4996021;28;20026;-77
2022/03/10 10:42:28;;;;;;;13.98;7.00;;;;;;;;;;5024596;28;20503;-78
2022/03/10 10:44:53;;;;;;;12.90;7.13;;;;;;;;;;5002641;28;20398;-79
2022/03/10 10:47:18;;;;;;;13.93;5.30;;;;;;;;;;5013490;28;20017;-78
2022/03/10 10:49:54;;;;;;;8.05;4.15;;;;;;;;;;5013774;28;20018;-80
2022/03/10 10:52:20;;;;;;;9.80;5.15;;;;;;;;;;5013457;28;20037;-80
2022/03/10 10:54:45;;;;;;;10.13;5.38;;;;;;;;;;4996140;28;20416;-78
2022/03/10 10:57:19;;;;;;;8.65;4.90;;;;;;;;;;5020578;28;20041;-78
2022/03/10 10:59:44;;;;;;;9.55;5.18;;;;;;;;;;5025655;28;20025;-79
2022/03/10 11:02:11;;;;;;;12.35;5.03;;;;;;;;;;5033309;28;20014;-78
2022/03/10 11:04:40;;;;;;;11.48;5.60;;;;;;;;;;5033441;28;20503;-78
2022/03/10 11:07:05;;;;;;;10.75;5.38;;;;;;;;;;5032981;28;20066;-79
2022/03/10 11:09:31;;;;;;;10.55;5.72;;;;;;;;;;5032972;28;20483;-80
2022/03/10 11:11:57;;;;;;;12.32;6.35;;;;;;;;;;5014762;28;20022;-79
2022/03/10 11:14:22;;;;;;;7.72;5.50;;;;;;;;;;5013039;28;20040;-78
2022/03/10 11:16:48;;;;;;;9.45;5.55;;;;;;;;;;5003145;28;20018;-78
2022/03/10 11:19:14;;;;;;;14.00;8.18;;;;;;;;;;5013437;28;20017;-79
2022/03/10 11:21:47;;;;;;;16.15;9.45;;;;;;;;;;5013149;28;20018;-79
2022/03/10 11:24:15;;;;;;;17.38;9.88;;;;;;;;;;5013278;28;20105;-79
2022/03/10 11:26:40;;;;;;;;;;;;;;;;;;5013397;28;20428;-79
2022/03/10 11:29:06;;;;;;;11.27;6.38;;;;;;;;;;5013037;28;20328;-79
2022/03/10 11:31:31;;;;;;;10.30;6.63;;;;;;;;;;5024574;28;20029;-79
2022/03/10 11:33:58;;;;;;;15.00;8.45;;;;;;;;;;5019137;28;20033;-79
2022/03/10 11:36:23;;;;;;;11.82;7.40;;;;;;;;;;5012684;28;20017;-79
2022/03/10 11:38:49;;;;;;;13.95;9.18;;;;;;;;;;5012895;28;20025;-78
2022/03/10 11:41:15;;;;;;;13.68;9.27;;;;;;;;;;5013013;28;20014;-80
2022/03/10 11:43:40;;;;;;;16.07;9.87;;;;;;;;;;5012893;28;20025;-80
2022/03/10 11:46:36;;;;;;;14.90;8.03;;;;;;;;;;5012706;28;20500;-80
2022/03/10 11:49:15;;;;;;;14.07;8.55;;;;;;;;;;5008913;28;20037;-79
2022/03/10 11:51:45;;;;;;;16.33;9.10;;;;;;;;;;4995626;28;20056;-80
2022/03/10 11:54:11;;;;;;;14.27;7.80;;;;;;;;;;5012415;28;20461;-80
2022/03/10 11:56:43;;;;;;;21.80;8.02;;;;;;;;;;5012853;28;20540;-80
2022/03/10 11:59:18;;;;;;;14.90;6.30;;;;;;;;;;5012410;28;20092;-80
2022/03/10 12:01:44;;;;;;;13.60;6.85;;;;;;;;;;5012638;28;20035;-79
2022/03/10 12:04:12;;;;;;;10.50;6.32;;;;;;;;;;5015108;28;20021;-79
2022/03/10 12:06:38;;;;;;;16.50;7.70;;;;;;;;;;5023771;28;20071;-79
2022/03/10 12:09:05;;;;;;;9.53;6.00;;;;;;;;;;5014259;28;20488;-79
2022/03/10 12:11:46;;;;;;;8.60;6.05;;;;;;;;;;5032135;28;20032;-79
2022/03/10 12:14:25;;;;;;;11.07;5.72;;;;;;;;;;5014142;28;20029;-79
2022/03/10 12:16:50;;;;;;;9.70;5.90;;;;;;;;;;5031560;28;20491;-79
2022/03/10 12:19:15;;;;;;;8.47;5.10;;;;;;;;;;5031734;28;20030;-79
2022/03/10 12:21:41;;;;;;;8.83;4.47;;;;;;;;;;5012795;28;20044;-79
2022/03/10 12:24:07;;;;;;;9.17;4.90;;;;;;;;;;5024856;28;20095;-80
2022/03/10 12:26:39;;;;;;;7.97;4.72;;;;;;;;;;5011874;28;20018;-81
2022/03/10 12:29:08;;;;;;;8.48;4.85;;;;;;;;;;4994323;28;20045;-79
2022/03/10 12:31:35;;;;;;;12.02;5.43;;;;;;;;;;4994274;28;20216;-81
2022/03/10 12:34:02;;;;;;;11.98;5.38;;;;;;;;;;4994063;28;20026;-80
2022/03/10 12:36:29;;;;;;;8.57;5.15;;;;;;;;;;4997829;28;20112;-79
2022/03/10 12:38:54;;;;;;;11.18;5.38;;;;;;;;;;5021966;23;20057;-93
2022/03/10 12:41:25;;;;;;;9.50;5.20;;;;;;;;;;4999724;28;20014;-93
2022/03/10 12:43:56;;;;;;;11.82;5.35;;;;;;;;;;5002410;28;20017;-93
2022/03/10 12:46:22;;;;;;;11.43;5.38;;;;;;;;;;5020465;28;20209;-93
2022/03/10 12:49:06;;;;;;;9.38;5.15;;;;;;;;;;5037514;28;20021;-91
2022/03/10 12:51:33;;;;;;;10.50;5.43;;;;;;;;;;5041764;28;20101;-92
2022/03/10 12:53:59;;;;;;;12.73;4.95;;;;;;;;;;5020543;28;20503;-92
2022/03/10 12:56:25;;;;;;;9.48;4.63;;;;;;;;;;5027012;28;20048;-92
2022/03/10 12:58:51;;;;;;;9.02;5.10;;;;;;;;;;5039074;28;20464;-94
2022/03/10 13:01:16;;;;;;;8.32;5.72;;;;;;;;;;5020476;28;20041;-93
2022/03/10 13:03:47;;;;;;;9.90;4.97;;;;;;;;;;5018698;28;20337;-93
2022/03/10 13:06:12;;;;;;;12.63;4.63;;;;;;;;;;5019206;28;20025;-92
2022/03/10 13:08:43;;;;;;;12.30;5.05;;;;;;;;;;5016969;28;20082;-91
2022/03/10 13:11:08;;;;;;;13.25;4.82;;;;;;;;;;5035916;28;20068;-91
2022/03/10 13:13:33;;;;;;;10.10;4.93;;;;;;;;;;5017168;28;20497;-92
2022/03/10 13:16:04;;;;;;;7.85;4.55;;;;;;;;;;5018049;28;20053;-92
2022/03/10 13:18:38;;;;;;;8.55;4.65;;;;;;;;;;5036028;28;20024;-90
2022/03/10 13:21:05;;;;;;;10.52;5.32;;;;;;;;;;5036830;28;20025;-91
2022/03/10 13:23:30;;;;;;;10.05;4.85;;;;;;;;;;5017774;28;20053;-94
2022/03/10 13:25:55;;;;;;;11.15;5.28;;;;;;;;;;5034455;28;20026;-90
2022/03/10 13:28:28;;;;;;;10.07;4.80;;;;;;;;;;5015352;28;20025;-91
2022/03/10 13:30:53;;;;;;;11.15;4.95;;;;;;;;;;4997436;28;20431;-90
2022/03/10 13:33:20;;;;;;;9.65;5.40;;;;;;;;;;5014428;28;20017;-91
2022/03/10 13:35:47;;;;;;;21.27;6.60;;;;;;;;;;4996836;28;20021;-91
2022/03/10 13:38:18;;;;;;;8.57;5.32;;;;;;;;;;5014174;28;20040;-91
2022/03/10 13:40:43;;;;;;;11.55;7.32;;;;;;;;;;4997093;28;20018;-89
2022/03/10 13:43:08;;;;;;;11.25;6.63;;;;;;;;;;4995213;28;20362;-91
2022/03/10 13:45:42;;;;;;;13.63;6.40;;;;;;;;;;5029093;28;20379;-90
2022/03/10 13:48:16;;;;;;;14.48;7.35;;;;;;;;;;5018229;28;20018;-92
2022/03/10 13:50:41;;;;;;;11.35;6.78;;;;;;;;;;4996384;28;20033;-92
2022/03/10 13:53:08;;;;;;;8.97;5.83;;;;;;;;;;4995151;28;20371;-90
2022/03/10 13:55:49;;;;;;;11.40;6.65;;;;;;;;;;4995892;28;20251;-91
2022/03/10 13:58:16;;;;;;;15.45;7.80;;;;;;;;;;4996151;28;20392;-90
2022/03/10 14:00:48;;;;;;;11.57;6.57;;;;;;;;;;5016167;28;20357;-91
2022/03/10 14:03:17;;;;;;;13.00;7.47;;;;;;;;;;5006942;28;20021;-91
2022/03/10 14:05:47;;;;;;;13.15;6.97;;;;;;;;;;5015389;28;20040;-94
2022/03/10 14:08:20;;;;;;;12.57;6.82;;;;;;;;;;5032512;28;20083;-91
2022/03/10 14:10:49;;;;;;;9.48;6.13;;;;;;;;;;5032638;28;20028;-89
2022/03/10 14:13:15;;;;;;;13.20;6.75;;;;;;;;;;5014682;28;20632;-91
2022/03/10 14:15:42;;;;;;;11.60;6.53;;;;;;;;;;5015699;28;20024;-92
2022/03/10 14:18:11;;;;;;;11.82;6.63;;;;;;;;;;5016880;28;20021;-92
2022/03/10 14:20:43;;;;;;;14.38;6.68;;;;;;;;;;5009488;28;20025;-91
2022/03/10 14:23:09;;;;;;;17.00;9.80;;;;;;;;;;5000400;28;20017;-91
2022/03/10 14:25:54;;;;;;;20.40;11.00;;;;;;;;;;4999337;28;20029;-91
2022/03/10 14:28:31;;;;;;;20.45;11.80;;;;;;;;;;5017207;28;20026;-91
2022/03/10 14:30:56;;;;;;;26.48;14.82;;;;;;;;;;5000366;28;20394;-90
2022/03/10 14:33:21;;;;;;;25.40;11.63;;;;;;;;;;5023410;28;20021;-91
2022/03/10 14:35:47;;;;;;;17.02;9.18;;;;;;;;;;5015961;28;20393;-90
2022/03/10 14:38:13;;;;;;;21.63;9.27;;;;;;;;;;4998530;28;20462;-91
2022/03/10 14:40:42;;;;;;;15.05;8.18;;;;;;;;;;4998060;28;20262;-92
2022/03/10 14:43:08;;;;;;;18.13;8.90;;;;;;;;;;4999096;28;20121;-91
2022/03/10 14:45:33;;;;;;;18.25;8.65;;;;;;;;;;4998283;28;20552;-89
2022/03/10 14:47:58;;;;;;;14.30;8.00;;;;;;;;;;5015865;28;20028;-90
2022/03/10 14:50:24;;;;;;;15.50;9.02;;;;;;;;;;5003141;28;20267;-90
2022/03/10 14:52:50;;;;;;;16.30;8.38;;;;;;;;;;5008730;28;20025;-90
2022/03/10 14:55:15;;;;;;;18.23;8.95;;;;;;;;;;5018297;28;20018;-91
2022/03/10 14:57:40;;;;;;;20.50;11.20;;;;;;;;;;5017764;28;20018;-91
2022/03/10 15:00:08;;;;;;;22.17;12.65;;;;;;;;;;5035238;28;20022;-90
2022/03/10 15:02:34;;;;;;;16.63;10.60;;;;;;;;;;5018040;28;20025;-90
2022/03/10 15:04:59;;;;;;;14.13;8.85;;;;;;;;;;5035411;28;20032;-91
2022/03/10 15:07:24;;;;;;;17.70;9.63;;;;;;;;;;5034600;28;20032;-89
2022/03/10 15:09:49;;;;;;;23.67;10.63;;;;;;;;;;5021995;28;20053;-90
2022/03/10 15:12:15;;;;;;;17.98;10.00;;;;;;;;;;4997612;28;20772;-91
2022/03/10 15:14:41;;;;;;;17.58;9.48;;;;;;;;;;5014634;28;20014;-90
2022/03/10 15:17:06;;;;;;;20.25;10.30;;;;;;;;;;4998185;28;20021;-87
2022/03/10 15:19:35;;;;;;;18.95;10.00;;;;;;;;;;5015292;28;20101;-89
2022/03/10 15:22:00;;;;;;;;;;;;;;;;;;5015237;28;20025;-89